^^
Datos históricos de la estación: Murcia-Puente Tocinos
Diario Informe para Noviembre 4, 2019 Unidades:  Ambas    Ingés   Métrico
Diario Semanal Mensual Anual
  Máxima: Mínima: Promedio:
Temperatura: 80.6 °F /  27 °C 60.6 °F /  15.9 °C 70.2 °F /  21.2 °C
Punto de rocio: 55 °F /  12.8 °C 45.7 °F /  7.6 °C 49.1 °F /  9.5 °C
Humedad: 65% 33.7% 48%
Velocidad viento: 11.2mph /  18km/h - 4.8mph /  7.7km/h
Racha viento: 22mph /  35.4km/h - -
Viento- - SO
Presión: 29.9 in /  1011.3 hPa 29.7 in /  1005.9 hPa -
Precipitación: 0 in /  0.0 mm    
 
 
Tabla de datos para Noviembre 4, 2019
Hora Temperatura Punto de rocio Presión Viento Velocidad viento Racha viento Humedad Intensidad lluvia(por hora) Nubes
00:04 67.6 °F /  19.8 °C 48.9 °F /  9.4 °C 29.9in /  1010.8hPa SO 3.8mph /  6.1km/h 6.9mph /  11.1km/h 51% 0in /  0.0mm
00:09 67.6 °F /  19.8 °C 48.7 °F /  9.3 °C 29.9in /  1011.0hPa Sur 4mph /  6.5km/h 7mph /  11.3km/h 51% 0in /  0.0mm
00:14 67.5 °F /  19.7 °C 48.7 °F /  9.3 °C 29.9in /  1011.0hPa SSO 3.3mph /  5.3km/h 5mph /  8km/h 51% 0in /  0.0mm
00:19 67.3 °F /  19.6 °C 48.6 °F /  9.2 °C 29.9in /  1011.0hPa SO 3.1mph /  5km/h 4.6mph /  7.4km/h 51% 0in /  0.0mm
00:24 67.3 °F /  19.6 °C 48.4 °F /  9.1 °C 29.9in /  1011.1hPa OSO 2.5mph /  4.1km/h 5mph /  8km/h 51% 0in /  0.0mm
00:29 66.9 °F /  19.4 °C 48.4 °F /  9.1 °C 29.9in /  1011.1hPa SSO 2.4mph /  3.9km/h 4.6mph /  7.4km/h 51.4% 0in /  0.0mm
00:34 66.7 °F /  19.3 °C 48.7 °F /  9.3 °C 29.9in /  1011.1hPa Sur 2.1mph /  3.4km/h 5.4mph /  8.7km/h 52.6% 0in /  0.0mm
00:39 66.4 °F /  19.1 °C 48.7 °F /  9.3 °C 29.9in /  1011.2hPa Sur 2mph /  3.2km/h 6mph /  9.7km/h 53% 0in /  0.0mm
00:44 66.2 °F /  19 °C 48.6 °F /  9.2 °C 29.9in /  1011.2hPa Sur 2.7mph /  4.4km/h 5mph /  8km/h 53% 0in /  0.0mm
00:49 66 °F /  18.9 °C 48.4 °F /  9.1 °C 29.9in /  1011.2hPa Sur 2.9mph /  4.7km/h 5mph /  8km/h 53% 0in /  0.0mm
00:54 66 °F /  18.9 °C 48.4 °F /  9.1 °C 29.9in /  1011.2hPa SSE 3.4mph /  5.5km/h 6.2mph /  10km/h 53% 0in /  0.0mm
00:59 66 °F /  18.9 °C 48.4 °F /  9.1 °C 29.9in /  1011.1hPa SSE 3.6mph /  5.8km/h 6mph /  9.7km/h 53% 0in /  0.0mm
01:04 66 °F /  18.9 °C 48.4 °F /  9.1 °C 29.9in /  1011.1hPa SSO 3.6mph /  5.8km/h 5mph /  8km/h 53% 0in /  0.0mm
01:09 65.8 °F /  18.8 °C 48.2 °F /  9 °C 29.9in /  1011.1hPa OSO 3.6mph /  5.8km/h 5mph /  8km/h 53% 0in /  0.0mm
01:14 65.8 °F /  18.8 °C 48.2 °F /  9 °C 29.9in /  1011.1hPa SSO 2.4mph /  3.8km/h 5.2mph /  8.4km/h 53% 0in /  0.0mm
01:19 65.8 °F /  18.8 °C 48.2 °F /  9 °C 29.9in /  1011.1hPa Sur 2mph /  3.2km/h 5.9mph /  9.5km/h 52.9% 0in /  0.0mm
01:24 65.8 °F /  18.8 °C 47.8 °F /  8.8 °C 29.9in /  1011.1hPa SSE 3.2mph /  5.2km/h 6mph /  9.7km/h 52.1% 0in /  0.0mm
01:29 66 °F /  18.9 °C 47.3 °F /  8.5 °C 29.9in /  1011.1hPa SSO 3.6mph /  5.8km/h 6.9mph /  11.1km/h 50.9% 0in /  0.0mm
01:34 66.4 °F /  19.1 °C 46.9 °F /  8.3 °C 29.9in /  1011.1hPa SO 3.9mph /  6.3km/h 9.2mph /  14.8km/h 49.4% 0in /  0.0mm
01:39 66.7 °F /  19.3 °C 46.6 °F /  8.1 °C 29.9in /  1011.2hPa SO 4mph /  6.5km/h 9mph /  14.5km/h 48.4% 0in /  0.0mm
01:44 66.9 °F /  19.4 °C 46.6 °F /  8.1 °C 29.9in /  1011.2hPa SSO 4.2mph /  6.8km/h 8.5mph /  13.7km/h 48% 0in /  0.0mm
01:49 66.7 °F /  19.3 °C 46.9 °F /  8.3 °C 29.9in /  1011.2hPa SSE 4.3mph /  6.9km/h 9mph /  14.5km/h 48.8% 0in /  0.0mm
01:54 66.4 °F /  19.1 °C 46.8 °F /  8.2 °C 29.9in /  1011.3hPa SSE 4.3mph /  6.9km/h 10mph /  16.1km/h 49.3% 0in /  0.0mm
01:59 66 °F /  18.9 °C 46.8 °F /  8.2 °C 29.9in /  1011.3hPa SSE 4.3mph /  6.9km/h 10.4mph /  16.7km/h 49.7% 0in /  0.0mm
02:04 65.8 °F /  18.8 °C 46.8 °F /  8.2 °C 29.9in /  1011.3hPa Sur 6mph /  9.7km/h 10mph /  16.1km/h 50% 0in /  0.0mm
02:09 65.7 °F /  18.7 °C 46.4 °F /  8 °C 29.9in /  1011.3hPa Sur 6.4mph /  10.3km/h 9mph /  14.5km/h 49.9% 0in /  0.0mm
02:14 65.8 °F /  18.8 °C 46.2 °F /  7.9 °C 29.9in /  1011.0hPa SSO 5.5mph /  8.8km/h 8.5mph /  13.7km/h 49% 0in /  0.0mm
02:19 66 °F /  18.9 °C 46.4 °F /  8 °C 29.9in /  1011.0hPa Sur 5.2mph /  8.4km/h 9mph /  14.5km/h 48.9% 0in /  0.0mm
02:24 66.2 °F /  19 °C 46 °F /  7.8 °C 29.9in /  1011.0hPa Sur 4.3mph /  6.9km/h 6mph /  9.7km/h 48.3% 0in /  0.0mm
02:29 66.2 °F /  19 °C 46 °F /  7.8 °C 29.9in /  1010.9hPa SSE 4mph /  6.5km/h 5mph /  8km/h 48.2% 0in /  0.0mm
02:34 66.2 °F /  19 °C 46.4 °F /  8 °C 29.9in /  1010.9hPa SSE 2.3mph /  3.7km/h 5mph /  8km/h 48.9% 0in /  0.0mm
02:39 66 °F /  18.9 °C 46 °F /  7.8 °C 29.9in /  1010.9hPa SSE 1.8mph /  2.9km/h   48.5% 0in /  0.0mm
02:44 66 °F /  18.9 °C 46.2 °F /  7.9 °C 29.9in /  1010.9hPa Sur 0.4mph /  0.6km/h 1.8mph /  2.9km/h 48.8% 0in /  0.0mm
02:49 66 °F /  18.9 °C 45.9 °F /  7.7 °C 29.9in /  1010.9hPa Calm   2.3mph /  3.7km/h 48.2% 0in /  0.0mm
02:54 66 °F /  18.9 °C 46.2 °F /  7.9 °C 29.9in /  1010.9hPa Calm   2mph /  3.2km/h 48.8% 0in /  0.0mm
02:59 65.8 °F /  18.8 °C 46.2 °F /  7.9 °C 29.9in /  1010.8hPa Calm     49.2% 0in /  0.0mm
03:04 65.8 °F /  18.8 °C 46.6 °F /  8.1 °C 29.9in /  1010.8hPa Calm     49.9% 0in /  0.0mm
03:09 65.7 °F /  18.7 °C 46.4 °F /  8 °C 29.9in /  1010.8hPa Calm     49.8% 0in /  0.0mm
03:14 65.5 °F /  18.6 °C 46.8 °F /  8.2 °C 29.9in /  1010.8hPa Calm     50.8% 0in /  0.0mm
03:19 65.1 °F /  18.4 °C 46.9 °F /  8.3 °C 29.9in /  1010.8hPa Calm     51.5% 0in /  0.0mm
03:24 64.9 °F /  18.3 °C 46.6 °F /  8.1 °C 29.9in /  1010.9hPa Calm     51.4% 0in /  0.0mm
03:29 64.8 °F /  18.2 °C 46.8 °F /  8.2 °C 29.9in /  1010.9hPa Calm   3.5mph /  5.6km/h 52.1% 0in /  0.0mm
03:34 64.6 °F /  18.1 °C 47.1 °F /  8.4 °C 29.9in /  1010.9hPa Calm   3.1mph /  5km/h 52.9% 0in /  0.0mm
03:39 64.4 °F /  18 °C 46.9 °F /  8.3 °C 29.9in /  1010.9hPa Calm   4.6mph /  7.4km/h 53.2% 0in /  0.0mm
03:44 64.2 °F /  17.9 °C 46.9 °F /  8.3 °C 29.9in /  1010.9hPa SE 1.6mph /  2.6km/h 5mph /  8km/h 53.3% 0in /  0.0mm
03:49 64.2 °F /  17.9 °C 46.8 °F /  8.2 °C 29.9in /  1010.9hPa SE 2mph /  3.2km/h 5mph /  8km/h 53% 0in /  0.0mm
03:54 64.2 °F /  17.9 °C 46.9 °F /  8.3 °C 29.9in /  1010.9hPa ESE 2.7mph /  4.3km/h 5mph /  8km/h 53.4% 0in /  0.0mm
03:59 64 °F /  17.8 °C 47.1 °F /  8.4 °C 29.8in /  1010.6hPa SE 2.9mph /  4.7km/h 5.8mph /  9.3km/h 54% 0in /  0.0mm
04:04 63.9 °F /  17.7 °C 46.8 °F /  8.2 °C 29.8in /  1010.6hPa SSE 2.9mph /  4.7km/h 6mph /  9.7km/h 54% 0in /  0.0mm
04:09 63.7 °F /  17.6 °C 46.8 °F /  8.2 °C 29.8in /  1010.6hPa Sur 2.9mph /  4.7km/h 6mph /  9.7km/h 54% 0in /  0.0mm
04:14 63.7 °F /  17.6 °C 46.8 °F /  8.2 °C 29.8in /  1010.5hPa Oeste 2.9mph /  4.7km/h 4.3mph /  6.9km/h 54% 0in /  0.0mm
04:19 63.9 °F /  17.7 °C 46.9 °F /  8.3 °C 29.8in /  1010.5hPa ONO 2.9mph /  4.7km/h 5.8mph /  9.3km/h 54% 0in /  0.0mm
04:24 63.9 °F /  17.7 °C 46.9 °F /  8.3 °C 29.8in /  1010.5hPa SSO 2.9mph /  4.7km/h 6mph /  9.7km/h 54% 0in /  0.0mm
04:29 64 °F /  17.8 °C 47.1 °F /  8.4 °C 29.8in /  1010.2hPa SSE 2.9mph /  4.7km/h 6.9mph /  11.1km/h 54% 0in /  0.0mm
04:34 64 °F /  17.8 °C 47.1 °F /  8.4 °C 29.8in /  1010.2hPa SSE 4mph /  6.4km/h 7mph /  11.3km/h 53.9% 0in /  0.0mm
04:39 64.6 °F /  18.1 °C 47.1 °F /  8.4 °C 29.8in /  1010.3hPa Sur 4.3mph /  6.9km/h 7mph /  11.3km/h 53% 0in /  0.0mm
04:44 64.8 °F /  18.2 °C 47.1 °F /  8.4 °C 29.8in /  1010.3hPa SSE 4.1mph /  6.6km/h 7mph /  11.3km/h 53% 0in /  0.0mm
04:49 64.6 °F /  18.1 °C 47.1 °F /  8.4 °C 29.8in /  1010.3hPa Sur 4mph /  6.5km/h 7mph /  11.3km/h 53.1% 0in /  0.0mm
04:54 64.6 °F /  18.1 °C 47.3 °F /  8.5 °C 29.8in /  1010.5hPa Sur 4.2mph /  6.8km/h 9.2mph /  14.8km/h 53.5% 0in /  0.0mm
04:59 64.8 °F /  18.2 °C 47.1 °F /  8.4 °C 29.8in /  1010.5hPa SSE 4.3mph /  6.9km/h 9mph /  14.5km/h 52.7% 0in /  0.0mm
05:04 65.1 °F /  18.4 °C 47.1 °F /  8.4 °C 29.8in /  1010.5hPa ESE 5mph /  8.1km/h 7mph /  11.3km/h 52% 0in /  0.0mm
05:09 65.1 °F /  18.4 °C 47.1 °F /  8.4 °C 29.8in /  1010.5hPa ESE 5.2mph /  8.4km/h 6.9mph /  11.1km/h 52.3% 0in /  0.0mm
05:14 64.8 °F /  18.2 °C 47.3 °F /  8.5 °C 29.8in /  1010.5hPa SO 3.9mph /  6.3km/h 7mph /  11.3km/h 53% 0in /  0.0mm
05:19 64.6 °F /  18.1 °C 47.5 °F /  8.6 °C 29.8in /  1010.5hPa Sur 3.6mph /  5.8km/h 5.8mph /  9.3km/h 53.6% 0in /  0.0mm
05:24 64.6 °F /  18.1 °C 47.5 °F /  8.6 °C 29.8in /  1010.5hPa SE 2.7mph /  4.3km/h 6mph /  9.7km/h 54% 0in /  0.0mm
05:29 64.6 °F /  18.1 °C 47.5 °F /  8.6 °C 29.8in /  1010.2hPa SSE 2.4mph /  3.9km/h 5.8mph /  9.3km/h 54% 0in /  0.0mm
05:34 64.4 °F /  18 °C 47.5 °F /  8.6 °C 29.8in /  1010.2hPa Sur 2.9mph /  4.7km/h 6mph /  9.7km/h 54% 0in /  0.0mm
05:39 64.2 °F /  17.9 °C 47.7 °F /  8.7 °C 29.8in /  1010.3hPa ONO 3.1mph /  5km/h 6mph /  9.7km/h 55% 0in /  0.0mm
05:44 63.9 °F /  17.7 °C 47.5 °F /  8.6 °C 29.8in /  1010.3hPa NNO 2.5mph /  4.1km/h 5mph /  8km/h 55.2% 0in /  0.0mm
05:49 63.5 °F /  17.5 °C 47.5 °F /  8.6 °C 29.8in /  1010.3hPa ONO 2.4mph /  3.9km/h 4.6mph /  7.4km/h 56% 0in /  0.0mm
05:54 63.3 °F /  17.4 °C 47.3 °F /  8.5 °C 29.8in /  1010.4hPa OSO 2.4mph /  3.9km/h 5mph /  8km/h 56% 0in /  0.0mm
05:59 63.1 °F /  17.3 °C 47.3 °F /  8.5 °C 29.8in /  1010.4hPa Oeste 2.4mph /  3.9km/h 4.6mph /  7.4km/h 56.3% 0in /  0.0mm
06:04 63.1 °F /  17.3 °C 47.5 °F /  8.6 °C 29.8in /  1010.4hPa Oeste 2.4mph /  3.9km/h 5mph /  8km/h 56.6% 0in /  0.0mm
06:09 63.1 °F /  17.3 °C 47.7 °F /  8.7 °C 29.8in /  1010.4hPa Oeste 2.4mph /  3.9km/h 3.6mph /  5.8km/h 56.9% 0in /  0.0mm
06:14 63.1 °F /  17.3 °C 47.7 °F /  8.7 °C 29.8in /  1010.2hPa OSO 1.9mph /  3.1km/h 4.6mph /  7.4km/h 57% 0in /  0.0mm
06:19 63 °F /  17.2 °C 47.7 °F /  8.7 °C 29.8in /  1010.2hPa Oeste 1.8mph /  2.9km/h 5mph /  8km/h 57.7% 0in /  0.0mm
06:24 62.4 °F /  16.9 °C 47.7 °F /  8.7 °C 29.8in /  1010.5hPa OSO 2.2mph /  3.6km/h 5mph /  8km/h 58.6% 0in /  0.0mm
06:29 62.2 °F /  16.8 °C 47.7 °F /  8.7 °C 29.8in /  1010.5hPa SSO 2.4mph /  3.9km/h 5mph /  8km/h 59% 0in /  0.0mm
06:34 62.2 °F /  16.8 °C 47.7 °F /  8.7 °C 29.8in /  1010.5hPa SSO 2.4mph /  3.9km/h 5mph /  8km/h 59% 0in /  0.0mm
06:39 62.2 °F /  16.8 °C 48.2 °F /  9 °C 29.8in /  1010.5hPa Sur 2.4mph /  3.9km/h 8.7mph /  14km/h 60.1% 0in /  0.0mm
06:44 61.7 °F /  16.5 °C 48.2 °F /  9 °C 29.8in /  1010.4hPa Sur 2.4mph /  3.9km/h 9.7mph /  15.6km/h 61.3% 0in /  0.0mm
06:49 60.8 °F /  16 °C 48 °F /  8.9 °C 29.8in /  1010.4hPa SSO 2.4mph /  3.9km/h 10mph /  16.1km/h 62.8% 0in /  0.0mm
06:54 60.8 °F /  16 °C 48 °F /  8.9 °C 29.8in /  1010.5hPa SSO 4.8mph /  7.7km/h 9mph /  14.5km/h 63% 0in /  0.0mm
06:59 61.2 °F /  16.2 °C 48.4 °F /  9.1 °C 29.8in /  1010.5hPa SO 5.4mph /  8.7km/h 7mph /  11.3km/h 62.9% 0in /  0.0mm
07:04 61.3 °F /  16.3 °C 48.4 °F /  9.1 °C 29.8in /  1010.5hPa SO 3.9mph /  6.3km/h 7mph /  11.3km/h 62% 0in /  0.0mm
07:09 61.5 °F /  16.4 °C 48.4 °F /  9.1 °C 29.8in /  1010.5hPa Oeste 3.6mph /  5.8km/h 5mph /  8km/h 62% 0in /  0.0mm
07:14 61.7 °F /  16.5 °C 48.6 °F /  9.2 °C 29.8in /  1010.4hPa SSO 2.4mph /  3.8km/h 5.8mph /  9.3km/h 62% 0in /  0.0mm
07:19 61.5 °F /  16.4 °C 48.6 °F /  9.2 °C 29.8in /  1010.4hPa SE 2mph /  3.2km/h 6mph /  9.7km/h 62.3% 0in /  0.0mm
07:24 61.2 °F /  16.2 °C 48.7 °F /  9.3 °C 29.8in /  1010.4hPa SSE 2.9mph /  4.6km/h 7.6mph /  12.2km/h 63.6% 0in /  0.0mm
07:29 61 °F /  16.1 °C 48.7 °F /  9.3 °C 29.8in /  1010.4hPa SE 3.1mph /  5km/h 8.1mph /  13km/h 64% 0in /  0.0mm
07:34 61 °F /  16.1 °C 48.7 °F /  9.3 °C 29.8in /  1010.4hPa SSE 4mph /  6.5km/h 7mph /  11.3km/h 64% 0in /  0.0mm
07:39 61.2 °F /  16.2 °C 48.9 °F /  9.4 °C 29.8in /  1010.5hPa SE 4.3mph /  6.9km/h 5.2mph /  8.4km/h 64% 0in /  0.0mm
07:44 61.2 °F /  16.2 °C 48.7 °F /  9.3 °C 29.8in /  1010.5hPa SE 3.7mph /  6km/h 5.8mph /  9.3km/h 64% 0in /  0.0mm
07:49 60.8 °F /  16 °C 48.7 °F /  9.3 °C 29.8in /  1010.5hPa SSE 3.6mph /  5.8km/h 8.1mph /  13km/h 64.7% 0in /  0.0mm
07:54 60.6 °F /  15.9 °C 48.7 °F /  9.3 °C 29.8in /  1010.6hPa SO 4.2mph /  6.7km/h 8mph /  12.9km/h 65% 0in /  0.0mm
07:59 61.2 °F /  16.2 °C 49.1 °F /  9.5 °C 29.8in /  1010.6hPa SO 4.3mph /  6.9km/h 5mph /  8km/h 64.8% 0in /  0.0mm
08:04 61.5 °F /  16.4 °C 49.1 °F /  9.5 °C 29.8in /  1010.6hPa OSO 3.3mph /  5.3km/h 5.2mph /  8.4km/h 63.7% 0in /  0.0mm
08:09 62.2 °F /  16.8 °C 49.3 °F /  9.6 °C 29.8in /  1010.6hPa SO 3.1mph /  5km/h 5.2mph /  8.4km/h 62.2% 0in /  0.0mm
08:14 63.1 °F /  17.3 °C 49.5 °F /  9.7 °C 29.8in /  1010.6hPa OSO 3.1mph /  5km/h 5.2mph /  8.4km/h 61.1% 0in /  0.0mm
08:19 63.3 °F /  17.4 °C 49.6 °F /  9.8 °C 29.8in /  1010.6hPa OSO 3.1mph /  5km/h 5mph /  8km/h 61% 0in /  0.0mm
08:24 63.5 °F /  17.5 °C 49.8 °F /  9.9 °C 29.8in /  1010.7hPa SO 3.1mph /  5km/h 5mph /  8km/h 60.8% 0in /  0.0mm
08:29 63.7 °F /  17.6 °C 50 °F /  10 °C 29.8in /  1010.7hPa OSO 3.1mph /  5km/h 5mph /  8km/h 60.8% 0in /  0.0mm
08:34 64 °F /  17.8 °C 49.8 °F /  9.9 °C 29.8in /  1010.7hPa OSO 2.5mph /  4.1km/h 4mph /  6.4km/h 60% 0in /  0.0mm
08:39 64.6 °F /  18.1 °C 50.4 °F /  10.2 °C 29.9in /  1011.0hPa SE 2.4mph /  3.9km/h 4.7mph /  7.6km/h 60% 0in /  0.0mm
08:44 64.9 °F /  18.3 °C 50.5 °F /  10.3 °C 29.9in /  1011.0hPa SE 2.4mph /  3.9km/h 7.4mph /  11.9km/h 60% 0in /  0.0mm
08:49 64.4 °F /  18 °C 50.5 °F /  10.3 °C 29.9in /  1011.0hPa SE 2.4mph /  3.9km/h 7mph /  11.3km/h 60.7% 0in /  0.0mm
08:54 64 °F /  17.8 °C 50.4 °F /  10.2 °C 29.9in /  1011.1hPa SSE 3.9mph /  6.2km/h 7mph /  11.3km/h 61% 0in /  0.0mm
08:59 64.4 °F /  18 °C 50.7 °F /  10.4 °C 29.9in /  1011.1hPa SSE 4.3mph /  6.9km/h 5.9mph /  9.5km/h 61% 0in /  0.0mm
09:04 64.6 °F /  18.1 °C 50.7 °F /  10.4 °C 29.9in /  1011.1hPa Sur 3.7mph /  6km/h 6mph /  9.7km/h 61% 0in /  0.0mm
09:09 64.8 °F /  18.2 °C 51.1 °F /  10.6 °C 29.9in /  1011.1hPa Sur 3.6mph /  5.8km/h 6mph /  9.7km/h 61% 0in /  0.0mm
09:14 65.1 °F /  18.4 °C 51.3 °F /  10.7 °C 29.9in /  1011.0hPa Sur 3.6mph /  5.8km/h 6.2mph /  10km/h 60.9% 0in /  0.0mm
09:19 65.7 °F /  18.7 °C 51.6 °F /  10.9 °C 29.9in /  1011.0hPa Sur 3.6mph /  5.8km/h 6mph /  9.7km/h 60.5% 0in /  0.0mm
09:24 66 °F /  18.9 °C 51.8 °F /  11 °C 29.9in /  1011.0hPa SO 3.9mph /  6.3km/h 6mph /  9.7km/h 60% 0in /  0.0mm
09:29 66.6 °F /  19.2 °C 52.2 °F /  11.2 °C 29.9in /  1011.0hPa OSO 4mph /  6.5km/h 6.2mph /  10km/h 59.5% 0in /  0.0mm
09:34 67.3 °F /  19.6 °C 52.5 °F /  11.4 °C 29.9in /  1011.0hPa Oeste 3.3mph /  5.3km/h 6.9mph /  11.1km/h 59% 0in /  0.0mm
09:39 68.2 °F /  20.1 °C 53.1 °F /  11.7 °C 29.9in /  1011.0hPa Oeste 3.1mph /  5km/h 9.2mph /  14.8km/h 58.5% 0in /  0.0mm
09:44 68.7 °F /  20.4 °C 53.1 °F /  11.7 °C 29.9in /  1011.0hPa Oeste 4.3mph /  7km/h 9.2mph /  14.8km/h 57.4% 0in /  0.0mm
09:49 69.1 °F /  20.6 °C 53.2 °F /  11.8 °C 29.9in /  1011.0hPa Oeste 4.7mph /  7.6km/h 10.4mph /  16.7km/h 57% 0in /  0.0mm
09:54 69.4 °F /  20.8 °C 53.4 °F /  11.9 °C 29.9in /  1011.1hPa OSO 5.9mph /  9.5km/h 10mph /  16.1km/h 57% 0in /  0.0mm
09:59 69.8 °F /  21 °C 53.8 °F /  12.1 °C 29.9in /  1011.1hPa SO 6.2mph /  10km/h 9mph /  14.5km/h 57% 0in /  0.0mm
10:04 70.2 °F /  21.2 °C 54.1 °F /  12.3 °C 29.9in /  1011.1hPa OSO 4.7mph /  7.5km/h 8.1mph /  13km/h 57% 0in /  0.0mm
10:09 70.3 °F /  21.3 °C 54.3 °F /  12.4 °C 29.9in /  1011.1hPa SSO 4.3mph /  6.9km/h 8mph /  12.9km/h 56.5% 0in /  0.0mm
10:14 71.1 °F /  21.7 °C 54.3 °F /  12.4 °C 29.9in /  1011.1hPa SSO 3.4mph /  5.4km/h 6mph /  9.7km/h 55.6% 0in /  0.0mm
10:19 71.2 °F /  21.8 °C 54.1 °F /  12.3 °C 29.9in /  1011.1hPa SO 3.1mph /  5km/h 6mph /  9.7km/h 54.9% 0in /  0.0mm
10:24 71.4 °F /  21.9 °C 54.1 °F /  12.3 °C 29.9in /  1011.1hPa Oeste 3.1mph /  5km/h 6mph /  9.7km/h 54.4% 0in /  0.0mm
10:29 72 °F /  22.2 °C 54.1 °F /  12.3 °C 29.9in /  1011.0hPa SO 3.1mph /  5km/h 6.9mph /  11.1km/h 53.7% 0in /  0.0mm
10:34 72.1 °F /  22.3 °C 54.3 °F /  12.4 °C 29.9in /  1011.0hPa SSE 3.1mph /  5km/h 7mph /  11.3km/h 53.7% 0in /  0.0mm
10:39 72.5 °F /  22.5 °C 54.5 °F /  12.5 °C 29.9in /  1011.0hPa SSE 3.1mph /  5km/h 8.1mph /  13km/h 53% 0in /  0.0mm
10:44 72.1 °F /  22.3 °C 54.5 °F /  12.5 °C 29.9in /  1010.8hPa SE 3.8mph /  6.1km/h 8.1mph /  13km/h 53.7% 0in /  0.0mm
10:49 72 °F /  22.2 °C 54.5 °F /  12.5 °C 29.9in /  1010.8hPa SSE 4mph /  6.5km/h 8.5mph /  13.7km/h 54% 0in /  0.0mm
10:54 72 °F /  22.2 °C 54.5 °F /  12.5 °C 29.9in /  1010.8hPa SSE 5mph /  8km/h 9mph /  14.5km/h 54% 0in /  0.0mm
10:59 72.1 °F /  22.3 °C 54.5 °F /  12.5 °C 29.9in /  1010.8hPa Sur 5.2mph /  8.4km/h 7mph /  11.3km/h 54% 0in /  0.0mm
11:04 72.5 °F /  22.5 °C 54.5 °F /  12.5 °C 29.9in /  1010.8hPa SE 3.5mph /  5.6km/h 5mph /  8km/h 53.3% 0in /  0.0mm
11:09 73 °F /  22.8 °C 54.7 °F /  12.6 °C 29.9in /  1010.8hPa SSE 3.1mph /  5km/h 8.1mph /  13km/h 52.6% 0in /  0.0mm
11:14 73.4 °F /  23 °C 54.5 °F /  12.5 °C 29.8in /  1010.7hPa SSE 3.8mph /  6.1km/h 8mph /  12.9km/h 51.8% 0in /  0.0mm
11:19 73.9 °F /  23.3 °C 54.5 °F /  12.5 °C 29.8in /  1010.7hPa SE 4mph /  6.5km/h 6mph /  9.7km/h 51% 0in /  0.0mm
11:24 74.5 °F /  23.6 °C 54.7 °F /  12.6 °C 29.8in /  1010.7hPa SE 3.2mph /  5.1km/h 6.2mph /  10km/h 50.3% 0in /  0.0mm
11:29 74.8 °F /  23.8 °C 55 °F /  12.8 °C 29.8in /  1010.5hPa SSE 2.9mph /  4.7km/h 6.9mph /  11.1km/h 50% 0in /  0.0mm
11:34 75 °F /  23.9 °C 54.7 °F /  12.6 °C 29.8in /  1010.5hPa SO 2.9mph /  4.7km/h 8.1mph /  13km/h 49.1% 0in /  0.0mm
11:39 75 °F /  23.9 °C 54.7 °F /  12.6 °C 29.8in /  1010.5hPa SSO 2.9mph /  4.7km/h 8mph /  12.9km/h 49.2% 0in /  0.0mm
11:44 75 °F /  23.9 °C 54.7 °F /  12.6 °C 29.8in /  1010.2hPa Sur 3.8mph /  6.1km/h 9.2mph /  14.8km/h 49% 0in /  0.0mm
11:49 75.4 °F /  24.1 °C 55 °F /  12.8 °C 29.8in /  1010.2hPa Sur 4mph /  6.5km/h 9.2mph /  14.8km/h 49% 0in /  0.0mm
11:54 75.7 °F /  24.3 °C 54.9 °F /  12.7 °C 29.8in /  1010.2hPa Sur 3.7mph /  5.9km/h 7.6mph /  12.2km/h 48.3% 0in /  0.0mm
11:59 75.7 °F /  24.3 °C 54.5 °F /  12.5 °C 29.8in /  1010.2hPa SSE 3.6mph /  5.8km/h 10.4mph /  16.7km/h 47.6% 0in /  0.0mm
12:04 75.7 °F /  24.3 °C 54.7 °F /  12.6 °C 29.8in /  1010.2hPa Sur 5.5mph /  8.8km/h 10mph /  16.1km/h 47.9% 0in /  0.0mm
12:09 75.6 °F /  24.2 °C 54 °F /  12.2 °C 29.8in /  1010.2hPa OSO 5.9mph /  9.5km/h 7mph /  11.3km/h 47.1% 0in /  0.0mm
12:14 75.7 °F /  24.3 °C 54.3 °F /  12.4 °C 29.8in /  1009.9hPa Oeste 4.1mph /  6.6km/h 6mph /  9.7km/h 47.6% 0in /  0.0mm
12:19 76.1 °F /  24.5 °C 54.3 °F /  12.4 °C 29.8in /  1009.9hPa SSO 3.6mph /  5.8km/h 6mph /  9.7km/h 46.9% 0in /  0.0mm
12:24 76.5 °F /  24.7 °C 54.5 °F /  12.5 °C 29.8in /  1009.9hPa SSO 2.7mph /  4.3km/h 6.2mph /  10km/h 46.5% 0in /  0.0mm
12:29 76.8 °F /  24.9 °C 54 °F /  12.2 °C 29.8in /  1009.7hPa SSO 2.4mph /  3.9km/h 6mph /  9.7km/h 45.3% 0in /  0.0mm
12:34 76.6 °F /  24.8 °C 53.8 °F /  12.1 °C 29.8in /  1009.7hPa OSO 3.4mph /  5.4km/h 6.9mph /  11.1km/h 44.9% 0in /  0.0mm
12:39 76.5 °F /  24.7 °C 53.1 °F /  11.7 °C 29.8in /  1009.7hPa SO 3.6mph /  5.8km/h 8.1mph /  13km/h 44% 0in /  0.0mm
12:44 76.6 °F /  24.8 °C 53.2 °F /  11.8 °C 29.8in /  1009.4hPa SSO 3.6mph /  5.8km/h 8mph /  12.9km/h 44.4% 0in /  0.0mm
12:49 76.8 °F /  24.9 °C 53.2 °F /  11.8 °C 29.8in /  1009.4hPa Oeste 3.6mph /  5.8km/h 8.5mph /  13.7km/h 43.8% 0in /  0.0mm
12:54 77.2 °F /  25.1 °C 52.5 °F /  11.4 °C 29.8in /  1009.4hPa Oeste 3.9mph /  6.3km/h 9mph /  14.5km/h 42.3% 0in /  0.0mm
12:59 77.4 °F /  25.2 °C 52.3 °F /  11.3 °C 29.8in /  1009.0hPa Oeste 4mph /  6.5km/h 10.4mph /  16.7km/h 42% 0in /  0.0mm
13:04 77.5 °F /  25.3 °C 52.2 °F /  11.2 °C 29.8in /  1009.0hPa OSO 4.3mph /  6.9km/h 10mph /  16.1km/h 41.4% 0in /  0.0mm
13:09 77.5 °F /  25.3 °C 52 °F /  11.1 °C 29.8in /  1009.0hPa ONO 4.3mph /  6.9km/h 10.7mph /  17.2km/h 40.9% 0in /  0.0mm
13:14 77.5 °F /  25.3 °C 52 °F /  11.1 °C 29.8in /  1008.6hPa SO 5.2mph /  8.3km/h 11mph /  17.7km/h 40.9% 0in /  0.0mm
13:19 77.9 °F /  25.5 °C 51.6 °F /  10.9 °C 29.8in /  1008.6hPa SSO 5.4mph /  8.7km/h 10.4mph /  16.7km/h 40% 0in /  0.0mm
13:24 78.1 °F /  25.6 °C 51.4 °F /  10.8 °C 29.8in /  1008.6hPa OSO 5.8mph /  9.3km/h 12.3mph /  19.8km/h 39.6% 0in /  0.0mm
13:29 78.1 °F /  25.6 °C 51.3 °F /  10.7 °C 29.8in /  1008.4hPa SO 5.9mph /  9.5km/h 13mph /  20.9km/h 39.1% 0in /  0.0mm
13:34 78.1 °F /  25.6 °C 51.6 °F /  10.9 °C 29.8in /  1008.4hPa Oeste 5.9mph /  9.5km/h 13mph /  20.9km/h 39.7% 0in /  0.0mm
13:39 78.1 °F /  25.6 °C 51.6 °F /  10.9 °C 29.8in /  1008.4hPa Oeste 5.9mph /  9.5km/h 13mph /  20.9km/h 39.7% 0in /  0.0mm
13:44 78.1 °F /  25.6 °C 51.3 °F /  10.7 °C 29.8in /  1007.9hPa SO 6.2mph /  9.9km/h 12mph /  19.3km/h 39.1% 0in /  0.0mm
13:49 77.7 °F /  25.4 °C 50.9 °F /  10.5 °C 29.8in /  1007.9hPa OSO 6.2mph /  10km/h 13mph /  20.9km/h 39.1% 0in /  0.0mm
13:54 78.1 °F /  25.6 °C 50.7 °F /  10.4 °C 29.8in /  1007.9hPa SO 6.2mph /  10km/h 13mph /  20.9km/h 38.6% 0in /  0.0mm
13:59 78.3 °F /  25.7 °C 50.5 °F /  10.3 °C 29.8in /  1007.7hPa Oeste 6.2mph /  10km/h 11mph /  17.7km/h 38% 0in /  0.0mm
14:04 78.4 °F /  25.8 °C 50.5 °F /  10.3 °C 29.8in /  1007.7hPa SO 6.2mph /  10km/h 10mph /  16.1km/h 37.6% 0in /  0.0mm
14:09 78.6 °F /  25.9 °C 50.4 °F /  10.2 °C 29.8in /  1007.7hPa SO 6.2mph /  10km/h 12.3mph /  19.8km/h 37.2% 0in /  0.0mm
14:14 78.8 °F /  26 °C 50.7 °F /  10.4 °C 29.8in /  1007.5hPa Oeste 5.4mph /  8.7km/h 13mph /  20.9km/h 37.6% 0in /  0.0mm
14:19 78.4 °F /  25.8 °C 50.4 °F /  10.2 °C 29.8in /  1007.5hPa Oeste 5.2mph /  8.4km/h 13mph /  20.9km/h 37.4% 0in /  0.0mm
14:24 78.4 °F /  25.8 °C 50.5 °F /  10.3 °C 29.8in /  1007.5hPa Oeste 5.3mph /  8.6km/h 12mph /  19.3km/h 37.8% 0in /  0.0mm
14:29 78.6 °F /  25.9 °C 50.7 °F /  10.4 °C 29.7in /  1007.3hPa Oeste 5.4mph /  8.7km/h 10.4mph /  16.7km/h 37.8% 0in /  0.0mm
14:34 79.2 °F /  26.2 °C 50.5 °F /  10.3 °C 29.7in /  1007.3hPa Oeste 4.5mph /  7.3km/h 11.5mph /  18.5km/h 37.1% 0in /  0.0mm
14:39 79 °F /  26.1 °C 50.5 °F /  10.3 °C 29.7in /  1007.3hPa ONO 4.3mph /  6.9km/h 12mph /  19.3km/h 37.1% 0in /  0.0mm
14:44 78.6 °F /  25.9 °C 50.2 °F /  10.1 °C 29.7in /  1007.0hPa ONO 5.6mph /  9km/h 12mph /  19.3km/h 37% 0in /  0.0mm
14:49 78.8 °F /  26 °C 50.4 °F /  10.2 °C 29.7in /  1007.0hPa ONO 5.9mph /  9.5km/h 10.7mph /  17.2km/h 37% 0in /  0.0mm
14:54 79.2 °F /  26.2 °C 50.7 °F /  10.4 °C 29.7in /  1007.0hPa ONO 5.3mph /  8.6km/h 11mph /  17.7km/h 37.2% 0in /  0.0mm
14:59 79.2 °F /  26.2 °C 50.4 °F /  10.2 °C 29.7in /  1006.7hPa ONO 5.2mph /  8.4km/h 15mph /  24.1km/h 36.5% 0in /  0.0mm
15:04 79.3 °F /  26.3 °C 50 °F /  10 °C 29.7in /  1006.7hPa OSO 6.2mph /  10km/h 15mph /  24.1km/h 35.9% 0in /  0.0mm
15:09 79.5 °F /  26.4 °C 49.5 °F /  9.7 °C 29.7in /  1006.7hPa OSO 6.4mph /  10.3km/h 15.6mph /  25.1km/h 35% 0in /  0.0mm
15:14 79.7 °F /  26.5 °C 49.6 °F /  9.8 °C 29.7in /  1006.6hPa OSO 7.3mph /  11.8km/h 16mph /  25.7km/h 35% 0in /  0.0mm
15:19 79.9 °F /  26.6 °C 49.8 °F /  9.9 °C 29.7in /  1006.6hPa SO 7.6mph /  12.2km/h 8mph /  12.9km/h 35% 0in /  0.0mm
15:24 80.1 °F /  26.7 °C 49.8 °F /  9.9 °C 29.7in /  1006.6hPa Oeste 4.5mph /  7.2km/h 11.5mph /  18.5km/h 35% 0in /  0.0mm
15:29 80.2 °F /  26.8 °C 49.8 °F /  9.9 °C 29.7in /  1006.4hPa Oeste 3.6mph /  5.8km/h 12mph /  19.3km/h 34.8% 0in /  0.0mm
15:34 80.2 °F /  26.8 °C 49.5 °F /  9.7 °C 29.7in /  1006.4hPa ONO 5.8mph /  9.3km/h 14mph /  22.5km/h 34% 0in /  0.0mm
15:39 80.2 °F /  26.8 °C 49.3 °F /  9.6 °C 29.7in /  1006.4hPa OSO 6.4mph /  10.3km/h 14mph /  22.5km/h 34% 0in /  0.0mm
15:44 80.4 °F /  26.9 °C 49.3 °F /  9.6 °C 29.7in /  1006.3hPa SO 7.2mph /  11.6km/h 14mph /  22.5km/h 33.7% 0in /  0.0mm
15:49 80.6 °F /  27 °C 49.6 °F /  9.8 °C 29.7in /  1006.3hPa Oeste 7.4mph /  11.9km/h 13mph /  20.9km/h 33.9% 0in /  0.0mm
15:54 80.4 °F /  26.9 °C 51.3 °F /  10.7 °C 29.7in /  1006.4hPa ONO 6.2mph /  10km/h 13.8mph /  22.2km/h 36.3% 0in /  0.0mm
15:59 79.7 °F /  26.5 °C 51.8 °F /  11 °C 29.7in /  1006.4hPa ONO 5.9mph /  9.5km/h 17.3mph /  27.8km/h 37.9% 0in /  0.0mm
16:04 79.2 °F /  26.2 °C 51.8 °F /  11 °C 29.7in /  1006.4hPa ONO 8.6mph /  13.9km/h 17mph /  27.4km/h 38.6% 0in /  0.0mm
16:09 78.8 °F /  26 °C 51.6 °F /  10.9 °C 29.7in /  1006.5hPa ONO 9.2mph /  14.8km/h 15mph /  24.1km/h 39% 0in /  0.0mm
16:14 78.6 °F /  25.9 °C 51.6 °F /  10.9 °C 29.7in /  1006.5hPa ONO 8.3mph /  13.4km/h 14mph /  22.5km/h 39% 0in /  0.0mm
16:19 78.4 °F /  25.8 °C 51.3 °F /  10.7 °C 29.7in /  1006.5hPa ONO 8.1mph /  13km/h 17mph /  27.4km/h 38.7% 0in /  0.0mm
16:24 78.3 °F /  25.7 °C 50.5 °F /  10.3 °C 29.7in /  1006.5hPa ONO 9.4mph /  15.1km/h 17.3mph /  27.8km/h 38% 0in /  0.0mm
16:29 78.3 °F /  25.7 °C 50.5 °F /  10.3 °C 29.7in /  1006.3hPa ONO 9.7mph /  15.6km/h 17.5mph /  28.2km/h 38% 0in /  0.0mm
16:34 77.9 °F /  25.5 °C 50.2 °F /  10.1 °C 29.7in /  1006.3hPa NO 10.1mph /  16.2km/h 17.3mph /  27.8km/h 38% 0in /  0.0mm
16:39 77.7 °F /  25.4 °C 50.2 °F /  10.1 °C 29.7in /  1006.3hPa NO 10.2mph /  16.4km/h 16mph /  25.7km/h 38% 0in /  0.0mm
16:44 77.7 °F /  25.4 °C 50 °F /  10 °C 29.7in /  1006.3hPa NO 8.2mph /  13.2km/h 12.3mph /  19.8km/h 37.9% 0in /  0.0mm
16:49 77.7 °F /  25.4 °C 50.2 °F /  10.1 °C 29.7in /  1006.3hPa NO 7.6mph /  12.2km/h 13mph /  20.9km/h 38% 0in /  0.0mm
16:54 77.7 °F /  25.4 °C 49.6 °F /  9.8 °C 29.7in /  1006.3hPa NO 6.5mph /  10.5km/h 11.5mph /  18.5km/h 37.3% 0in /  0.0mm
16:59 77.5 °F /  25.3 °C 49.3 °F /  9.6 °C 29.7in /  1006.1hPa NO 6.2mph /  10km/h 12mph /  19.3km/h 37% 0in /  0.0mm
17:04 77.5 °F /  25.3 °C 49.3 °F /  9.6 °C 29.7in /  1006.1hPa NO 5.5mph /  8.9km/h 10.4mph /  16.7km/h 37% 0in /  0.0mm
17:09 77.4 °F /  25.2 °C 49.6 °F /  9.8 °C 29.7in /  1006.1hPa NO 5.4mph /  8.7km/h 10.7mph /  17.2km/h 37.8% 0in /  0.0mm
17:14 77.2 °F /  25.1 °C 49.6 °F /  9.8 °C 29.7in /  1005.9hPa ONO 6.2mph /  10km/h 11mph /  17.7km/h 38% 0in /  0.0mm
17:19 77.2 °F /  25.1 °C 49.6 °F /  9.8 °C 29.7in /  1005.9hPa ONO 6.4mph /  10.3km/h 9.7mph /  15.6km/h 38% 0in /  0.0mm
17:24 77 °F /  25 °C 49.5 °F /  9.7 °C 29.7in /  1005.9hPa ONO 5.5mph /  8.8km/h 11.5mph /  18.5km/h 38% 0in /  0.0mm
17:29 76.8 °F /  24.9 °C 49.8 °F /  9.9 °C 29.7in /  1005.9hPa ONO 5.2mph /  8.4km/h 12mph /  19.3km/h 38.8% 0in /  0.0mm
17:34 76.6 °F /  24.8 °C 49.8 °F /  9.9 °C 29.7in /  1005.9hPa ONO 6mph /  9.6km/h 11.8mph /  19km/h 38.9% 0in /  0.0mm
17:39 76.5 °F /  24.7 °C 49.6 °F /  9.8 °C 29.7in /  1006.0hPa ONO 6.2mph /  10km/h 12.5mph /  20.1km/h 39% 0in /  0.0mm
17:44 76.3 °F /  24.6 °C 49.5 °F /  9.7 °C 29.7in /  1006.0hPa ONO 7.3mph /  11.8km/h 13mph /  20.9km/h 39% 0in /  0.0mm
17:49 75.9 °F /  24.4 °C 49.3 °F /  9.6 °C 29.7in /  1006.0hPa ONO 7.6mph /  12.2km/h 13.8mph /  22.2km/h 39% 0in /  0.0mm
17:54 76.1 °F /  24.5 °C 49.5 °F /  9.7 °C 29.7in /  1006.2hPa ONO 7mph /  11.3km/h 14mph /  22.5km/h 39.2% 0in /  0.0mm
17:59 75.7 °F /  24.3 °C 49.8 °F /  9.9 °C 29.7in /  1006.2hPa ONO 6.9mph /  11.1km/h 14mph /  22.5km/h 40% 0in /  0.0mm
18:04 75.6 °F /  24.2 °C 50 °F /  10 °C 29.7in /  1006.2hPa Oeste 7.5mph /  12km/h 16.1mph /  25.9km/h 40.6% 0in /  0.0mm
18:09 75.6 °F /  24.2 °C 50.2 °F /  10.1 °C 29.7in /  1006.4hPa Oeste 7.6mph /  12.2km/h 16mph /  25.7km/h 41% 0in /  0.0mm
18:14 75.2 °F /  24 °C 50.4 °F /  10.2 °C 29.7in /  1006.4hPa ONO 5.7mph /  9.2km/h 12.5mph /  20.1km/h 41.7% 0in /  0.0mm
18:19 74.8 °F /  23.8 °C 50 °F /  10 °C 29.7in /  1006.4hPa ONO 5.2mph /  8.4km/h 15mph /  24.1km/h 41.7% 0in /  0.0mm
18:24 74.7 °F /  23.7 °C 49.5 °F /  9.7 °C 29.7in /  1006.6hPa ONO 6.5mph /  10.5km/h 17.3mph /  27.8km/h 41.2% 0in /  0.0mm
18:29 74.5 °F /  23.6 °C 49.3 °F /  9.6 °C 29.7in /  1006.6hPa Oeste 6.9mph /  11.1km/h 17mph /  27.4km/h 41% 0in /  0.0mm
18:34 74.1 °F /  23.4 °C 48.9 °F /  9.4 °C 29.7in /  1006.6hPa Oeste 8.3mph /  13.3km/h 14.5mph /  23.3km/h 40.9% 0in /  0.0mm
18:39 73.9 °F /  23.3 °C 47.7 °F /  8.7 °C 29.7in /  1006.7hPa Oeste 8.7mph /  14km/h 18.4mph /  29.6km/h 39.4% 0in /  0.0mm
18:44 73.8 °F /  23.2 °C 47.1 °F /  8.4 °C 29.7in /  1006.7hPa Oeste 8.6mph /  13.8km/h 18.4mph /  29.6km/h 38.8% 0in /  0.0mm
18:49 73.6 °F /  23.1 °C 46.6 °F /  8.1 °C 29.7in /  1006.7hPa Oeste 8.5mph /  13.7km/h 17mph /  27.4km/h 38.3% 0in /  0.0mm
18:54 73.2 °F /  22.9 °C 46.2 °F /  7.9 °C 29.7in /  1007.0hPa ONO 9.7mph /  15.6km/h 17.3mph /  27.8km/h 38.2% 0in /  0.0mm
18:59 73 °F /  22.8 °C 46.8 °F /  8.2 °C 29.7in /  1007.0hPa Oeste 10mph /  16.1km/h 17mph /  27.4km/h 39% 0in /  0.0mm
19:04 72.9 °F /  22.7 °C 46.4 °F /  8 °C 29.7in /  1007.0hPa Oeste 8.8mph /  14.1km/h 21.3mph /  34.3km/h 39% 0in /  0.0mm
19:09 72.9 °F /  22.7 °C 46.4 °F /  8 °C 29.7in /  1007.3hPa Oeste 8.5mph /  13.7km/h 21.9mph /  35.2km/h 39% 0in /  0.0mm
19:14 72.9 °F /  22.7 °C 46.4 °F /  8 °C 29.7in /  1007.3hPa Oeste 10.6mph /  17.1km/h 22mph /  35.4km/h 39% 0in /  0.0mm
19:19 72.9 °F /  22.7 °C 46.4 °F /  8 °C 29.7in /  1007.3hPa Oeste 11.2mph /  18km/h 19mph /  30.6km/h 39% 0in /  0.0mm
19:24 72.7 °F /  22.6 °C 46.2 °F /  7.9 °C 29.8in /  1007.4hPa Oeste 9.3mph /  14.9km/h 16.3mph /  26.2km/h 39% 0in /  0.0mm
19:29 72.5 °F /  22.5 °C 46.4 °F /  8 °C 29.8in /  1007.4hPa Oeste 8.7mph /  14km/h 16mph /  25.7km/h 39.3% 0in /  0.0mm
19:34 72.1 °F /  22.3 °C 46.6 °F /  8.1 °C 29.8in /  1007.4hPa Oeste 8.5mph /  13.7km/h 15mph /  24.1km/h 40% 0in /  0.0mm
19:39 72.1 °F /  22.3 °C 46.4 °F /  8 °C 29.8in /  1007.5hPa OSO 8.5mph /  13.7km/h 14mph /  22.5km/h 40% 0in /  0.0mm
19:44 72 °F /  22.2 °C 46.9 °F /  8.3 °C 29.8in /  1007.5hPa OSO 7.6mph /  12.3km/h 14mph /  22.5km/h 40.9% 0in /  0.0mm
19:49 72 °F /  22.2 °C 46.9 °F /  8.3 °C 29.8in /  1007.5hPa OSO 7.4mph /  11.9km/h 14mph /  22.5km/h 41% 0in /  0.0mm
19:54 71.8 °F /  22.1 °C 46.8 °F /  8.2 °C 29.8in /  1007.7hPa OSO 7.6mph /  12.2km/h 14mph /  22.5km/h 41% 0in /  0.0mm
19:59 71.6 °F /  22 °C 46.6 °F /  8.1 °C 29.8in /  1007.7hPa OSO 7.6mph /  12.2km/h 13mph /  20.9km/h 41% 0in /  0.0mm
20:04 71.4 °F /  21.9 °C 46.6 °F /  8.1 °C 29.8in /  1007.7hPa OSO 7mph /  11.3km/h 13mph /  20.9km/h 41% 0in /  0.0mm
20:09 71.6 °F /  22 °C 46.6 °F /  8.1 °C 29.8in /  1007.7hPa OSO 6.9mph /  11.1km/h 13.7mph /  22km/h 41% 0in /  0.0mm
20:14 71.6 °F /  22 °C 46.8 °F /  8.2 °C 29.8in /  1007.7hPa OSO 7.5mph /  12km/h 14mph /  22.5km/h 41.3% 0in /  0.0mm
20:19 71.4 °F /  21.9 °C 47.1 °F /  8.4 °C 29.8in /  1007.7hPa Oeste 7.6mph /  12.2km/h 14mph /  22.5km/h 42% 0in /  0.0mm
20:24 71.4 °F /  21.9 °C 47.1 °F /  8.4 °C 29.8in /  1007.9hPa Oeste 7.5mph /  12km/h 13mph /  20.9km/h 42% 0in /  0.0mm
20:29 71.2 °F /  21.8 °C 46.9 °F /  8.3 °C 29.8in /  1007.9hPa OSO 7.4mph /  11.9km/h 12.5mph /  20.1km/h 42% 0in /  0.0mm
20:34 71.2 °F /  21.8 °C 46.9 °F /  8.3 °C 29.8in /  1007.9hPa OSO 6.5mph /  10.4km/h 13mph /  20.9km/h 42% 0in /  0.0mm
20:39 71.1 °F /  21.7 °C 46.9 °F /  8.3 °C 29.8in /  1008.0hPa OSO 6.2mph /  10km/h 10.4mph /  16.7km/h 42% 0in /  0.0mm
20:44 71.2 °F /  21.8 °C 46.9 °F /  8.3 °C 29.8in /  1008.0hPa OSO 6.2mph /  10km/h 12.7mph /  20.4km/h 42% 0in /  0.0mm
20:49 71.1 °F /  21.7 °C 46.9 °F /  8.3 °C 29.8in /  1008.0hPa OSO 6.2mph /  10km/h 13mph /  20.9km/h 42% 0in /  0.0mm
20:54 71.1 °F /  21.7 °C 46.8 °F /  8.2 °C 29.8in /  1008.0hPa SO 6.2mph /  10km/h 11mph /  17.7km/h 42% 0in /  0.0mm
20:59 70.9 °F /  21.6 °C 46.6 °F /  8.1 °C 29.8in /  1008.0hPa OSO 6.2mph /  10km/h 9mph /  14.5km/h 42% 0in /  0.0mm
21:04 70.7 °F /  21.5 °C 46.9 °F /  8.3 °C 29.8in /  1008.0hPa OSO 5.5mph /  8.9km/h 9.2mph /  14.8km/h 43% 0in /  0.0mm
21:09 70.3 °F /  21.3 °C 46.8 °F /  8.2 °C 29.8in /  1008.1hPa OSO 5.4mph /  8.7km/h 9.2mph /  14.8km/h 43% 0in /  0.0mm
21:14 70.2 °F /  21.2 °C 46.8 °F /  8.2 °C 29.8in /  1008.1hPa OSO 5.2mph /  8.4km/h 9.2mph /  14.8km/h 43% 0in /  0.0mm
21:19 70.2 °F /  21.2 °C 46.6 °F /  8.1 °C 29.8in /  1008.1hPa OSO 5.2mph /  8.4km/h 9.2mph /  14.8km/h 43% 0in /  0.0mm
21:24 70.2 °F /  21.2 °C 46.6 °F /  8.1 °C 29.8in /  1008.1hPa OSO 5.8mph /  9.3km/h 11.5mph /  18.5km/h 43% 0in /  0.0mm
21:29 70.2 °F /  21.2 °C 46.6 °F /  8.1 °C 29.8in /  1008.0hPa OSO 5.9mph /  9.5km/h 14mph /  22.5km/h 42.8% 0in /  0.0mm
21:34 70.5 °F /  21.4 °C 46 °F /  7.8 °C 29.8in /  1008.0hPa OSO 7.1mph /  11.4km/h 17.3mph /  27.8km/h 41.4% 0in /  0.0mm
21:39 71.1 °F /  21.7 °C 46 °F /  7.8 °C 29.8in /  1008.1hPa OSO 7.4mph /  11.9km/h 17mph /  27.4km/h 41% 0in /  0.0mm
21:44 71.1 °F /  21.7 °C 46.2 °F /  7.9 °C 29.8in /  1008.1hPa OSO 8.8mph /  14.2km/h 15mph /  24.1km/h 41% 0in /  0.0mm
21:49 70.9 °F /  21.6 °C 45.9 °F /  7.7 °C 29.8in /  1008.1hPa OSO 9.2mph /  14.8km/h 14mph /  22.5km/h 41% 0in /  0.0mm
21:54 70.5 °F /  21.4 °C 45.7 °F /  7.6 °C 29.8in /  1008.1hPa OSO 7.4mph /  11.9km/h 12mph /  19.3km/h 41% 0in /  0.0mm
21:59 70.3 °F /  21.3 °C 46.2 °F /  7.9 °C 29.8in /  1008.1hPa OSO 6.9mph /  11.1km/h 12mph /  19.3km/h 42% 0in /  0.0mm
22:04 70.3 °F /  21.3 °C 46.2 °F /  7.9 °C 29.8in /  1008.1hPa OSO 6.1mph /  9.8km/h 12mph /  19.3km/h 42% 0in /  0.0mm
22:09 70.2 °F /  21.2 °C 46 °F /  7.8 °C 29.8in /  1008.1hPa SO 5.9mph /  9.5km/h 13mph /  20.9km/h 42% 0in /  0.0mm
22:14 70.2 °F /  21.2 °C 46 °F /  7.8 °C 29.8in /  1008.0hPa SO 6.7mph /  10.8km/h 13mph /  20.9km/h 42% 0in /  0.0mm
22:19 70.2 °F /  21.2 °C 46 °F /  7.8 °C 29.8in /  1008.0hPa SO 6.9mph /  11.1km/h 9.2mph /  14.8km/h 42% 0in /  0.0mm
22:24 70 °F /  21.1 °C 45.9 °F /  7.7 °C 29.8in /  1008.0hPa SSO 5.7mph /  9.2km/h 8mph /  12.9km/h 42% 0in /  0.0mm
22:29 69.6 °F /  20.9 °C 46.2 °F /  7.9 °C 29.8in /  1007.8hPa SSE 5.4mph /  8.7km/h 9.2mph /  14.8km/h 43.3% 0in /  0.0mm
22:34 68.7 °F /  20.4 °C 46.6 °F /  8.1 °C 29.8in /  1007.8hPa SSE 5.2mph /  8.4km/h 9mph /  14.5km/h 45.2% 0in /  0.0mm
22:39 68.2 °F /  20.1 °C 46.6 °F /  8.1 °C 29.8in /  1007.8hPa SSE 5.2mph /  8.4km/h 9.2mph /  14.8km/h 46.2% 0in /  0.0mm
22:44 67.8 °F /  19.9 °C 46.4 °F /  8 °C 29.8in /  1007.8hPa SSE 5.8mph /  9.3km/h 9.2mph /  14.8km/h 46.2% 0in /  0.0mm
22:49 68.2 °F /  20.1 °C 46.2 °F /  7.9 °C 29.8in /  1007.8hPa Sur 5.9mph /  9.5km/h 9.2mph /  14.8km/h 45.5% 0in /  0.0mm
22:54 68.4 °F /  20.2 °C 46.2 °F /  7.9 °C 29.8in /  1007.8hPa Sur 5mph /  8km/h 9mph /  14.5km/h 45% 0in /  0.0mm
22:59 68.4 °F /  20.2 °C 46.2 °F /  7.9 °C 29.8in /  1007.6hPa Sur 4.7mph /  7.6km/h 10.4mph /  16.7km/h 45% 0in /  0.0mm
23:04 68.2 °F /  20.1 °C 46.4 °F /  8 °C 29.8in /  1007.6hPa Sur 5.3mph /  8.5km/h 10mph /  16.1km/h 45.8% 0in /  0.0mm
23:09 67.8 °F /  19.9 °C 46.4 °F /  8 °C 29.8in /  1007.6hPa SSO 5.4mph /  8.7km/h 9.2mph /  14.8km/h 46.3% 0in /  0.0mm
23:14 67.6 °F /  19.8 °C 46.8 °F /  8.2 °C 29.8in /  1007.4hPa SSO 4.8mph /  7.8km/h 7mph /  11.3km/h 47% 0in /  0.0mm
23:19 67.6 °F /  19.8 °C 46.8 °F /  8.2 °C 29.8in /  1007.4hPa SSO 4.7mph /  7.6km/h 6.9mph /  11.1km/h 47% 0in /  0.0mm
23:24 67.6 °F /  19.8 °C 46.6 °F /  8.1 °C 29.8in /  1007.4hPa SSO 4.4mph /  7.1km/h 8.5mph /  13.7km/h 47% 0in /  0.0mm
23:29 67.6 °F /  19.8 °C 46.9 °F /  8.3 °C 29.7in /  1007.2hPa SSO 4.3mph /  6.9km/h 10.4mph /  16.7km/h 47.6% 0in /  0.0mm
23:34 67.6 °F /  19.8 °C 47.1 °F /  8.4 °C 29.7in /  1007.2hPa SSO 5.2mph /  8.3km/h 10mph /  16.1km/h 47.9% 0in /  0.0mm
23:39 67.6 °F /  19.8 °C 46.8 °F /  8.2 °C 29.7in /  1007.2hPa SSO 5.4mph /  8.7km/h 11.8mph /  19km/h 47% 0in /  0.0mm
23:44 68 °F /  20 °C 46.8 °F /  8.2 °C 29.7in /  1007.0hPa SSO 6.6mph /  10.6km/h 12mph /  19.3km/h 46.6% 0in /  0.0mm
23:49 68.2 °F /  20.1 °C 46.6 °F /  8.1 °C 29.7in /  1007.0hPa SSO 6.9mph /  11.1km/h 12mph /  19.3km/h 46% 0in /  0.0mm
23:54 68.4 °F /  20.2 °C 46.6 °F /  8.1 °C 29.7in /  1007.0hPa SSO 7.3mph /  11.7km/h 12mph /  19.3km/h 45.5% 0in /  0.0mm
23:59 68.4 °F /  20.2 °C 46.2 °F /  7.9 °C 29.7in /  1007.0hPa SSO 7.4mph /  11.9km/h 17.5mph /  28.2km/h 45% 0in /  0.0mm
Murcia-Puente Tocinos, España
Compliments of Weather Underground - 3 mb

La estación de MeteoMurcia.com, publica sus datos en los siguientes proyectos:

Weather Underground PWS IMURCIAP2 Meteoclimatic www.awekas.at

W3Counter
Web Analytics